Time;durP1;ratioP1;P1;durP2;ratioP2;P2;SDS_P1;SDS_P2;PMS_P1;PMS_P2;Temp;Humidity;BMP_temperature;BMP_pressure;BME280_temperature;BME280_humidity;BME280_pressure;Samples;Min_cycle;Max_cycle;Signal;HPM_P1;HPM_P2
2022/10/09 00:01:08;;;;;;;36.95;6.07;;;;;;;10.37;75.56;99900.44;4996009;28;20129;-90
2022/10/09 00:03:36;;;;;;;25.90;5.40;;;;;;;10.07;75.33;99851.41;4996290;28;20038;-89
2022/10/09 00:06:04;;;;;;;15.05;5.03;;;;;;;10.01;75.36;99836.19;4979208;28;20110;-89
2022/10/09 00:08:31;;;;;;;21.35;5.60;;;;;;;10.12;75.40;99850.50;4995628;28;20516;-93
2022/10/09 00:10:57;;;;;;;23.98;5.60;;;;;;;10.01;75.07;99838.91;4965343;28;20046;-89
2022/10/09 00:13:23;;;;;;;16.75;6.43;;;;;;;9.88;75.60;99813.16;4981381;28;20565;-91
2022/10/09 00:15:49;;;;;;;21.73;5.72;;;;;;;9.96;75.92;99836.25;4977729;28;20073;-91
2022/10/09 00:18:17;;;;;;;17.90;4.80;;;;;;;10.33;75.54;99883.81;4960408;28;20087;-91
2022/10/09 00:20:45;;;;;;;28.42;6.28;;;;;;;10.16;75.41;99859.72;4980551;28;20077;-89
2022/10/09 00:23:17;;;;;;;19.77;5.50;;;;;;;9.97;75.40;99812.50;4996899;28;20065;-88
2022/10/09 00:25:55;;;;;;;15.77;5.07;;;;;;;10.10;75.59;99841.81;4989390;28;20502;-91
2022/10/09 00:28:24;;;;;;;23.67;5.78;;;;;;;10.08;75.45;99839.34;4995825;28;20026;-90
2022/10/09 00:30:52;;;;;;;18.67;6.07;;;;;;;10.18;75.34;99854.78;4980954;28;20089;-89
2022/10/09 00:33:19;;;;;;;19.02;5.53;;;;;;;9.74;74.93;99782.25;4980108;28;20030;-91
2022/10/09 00:35:45;;;;;;;16.90;6.35;;;;;;;10.23;74.61;99849.25;4961967;28;20045;-90
2022/10/09 00:38:11;;;;;;;16.13;5.80;;;;;;;10.05;74.52;99830.94;4976383;28;20525;-90
2022/10/09 00:40:38;;;;;;;23.63;6.37;;;;;;;10.33;74.76;99864.69;5005754;28;20299;-90
2022/10/09 00:43:15;;;;;;;18.15;6.15;;;;;;;10.10;74.78;99841.81;4998069;28;20045;-89
2022/10/09 00:45:47;;;;;;;17.92;6.90;;;;;;;10.21;75.01;99872.50;4964354;28;20034;-90
2022/10/09 00:48:14;;;;;;;19.38;7.55;;;;;;;9.58;75.27;99776.19;4981103;28;20080;-90
2022/10/09 00:50:53;;;;;;;20.95;7.25;;;;;;;9.65;75.47;99798.47;4998656;28;20061;-88
2022/10/09 00:53:25;;;;;;;20.67;7.97;;;;;;;9.82;75.78;99832.66;4977082;28;20034;-89
2022/10/09 00:55:52;;;;;;;18.08;7.72;;;;;;;9.61;76.04;99808.38;4962653;28;20132;-91
2022/10/09 00:58:18;;;;;;;19.52;6.97;;;;;;;9.82;76.24;99838.91;4980317;28;20038;-89
2022/10/09 01:00:44;;;;;;;19.00;7.20;;;;;;;9.36;76.44;99767.78;4977458;28;20057;-91
2022/10/09 01:03:20;;;;;;;18.30;6.97;;;;;;;9.71;76.15;99820.25;4982850;28;20439;-88
2022/10/09 01:05:51;;;;;;;18.20;7.00;;;;;;;9.89;76.48;99857.66;4976399;28;20388;-89
2022/10/09 01:15:23;;;;;;;21.38;8.00;;;;;;;9.86;76.59;99844.59;4979198;28;20129;-92
2022/10/09 01:18:17;;;;;;;25.23;6.80;;;;;;;9.45;76.63;99803.41;4964117;28;20539;-93
2022/10/09 01:20:53;;;;;;;12.07;6.40;;;;;;;9.20;76.74;99760.91;5005443;28;20050;-90
2022/10/09 01:23:46;;;;;;;17.27;6.72;;;;;;;9.73;77.12;99848.88;4978458;28;20124;-89
2022/10/09 01:27:11;;;;;;;16.60;6.18;;;;;;;9.69;77.65;99847.03;5000310;28;20049;-90
2022/10/09 01:29:47;;;;;;;17.05;5.40;;;;;;;9.33;77.51;99792.91;4961027;28;20137;-91
2022/10/09 01:32:19;;;;;;;17.17;5.97;;;;;;;9.63;77.49;99832.63;4941685;28;20485;-91
2022/10/09 01:34:46;;;;;;;13.07;5.95;;;;;;;9.52;77.40;99803.88;4971411;28;20504;-89
2022/10/09 01:37:15;;;;;;;20.45;6.55;;;;;;;9.54;77.57;99815.31;4987998;28;20037;-88
2022/10/09 01:39:44;;;;;;;27.88;6.50;;;;;;;9.42;77.81;99791.16;4981352;28;20046;-88
2022/10/09 01:42:13;;;;;;;21.63;5.85;;;;;;;9.40;77.48;99771.53;5000351;28;20096;-88
2022/10/09 01:44:39;;;;;;;20.85;5.65;;;;;;;9.80;77.51;99832.97;4971793;28;20415;-89
2022/10/09 01:47:18;;;;;;;14.75;5.50;;;;;;;9.79;77.06;99835.97;4987478;28;20089;-91
2022/10/09 01:49:58;;;;;;;15.43;6.05;;;;;;;9.81;77.35;99842.75;4968542;28;20069;-88
2022/10/09 01:52:51;;;;;;;13.98;5.47;;;;;;;9.77;77.37;99839.00;5017847;28;20038;-87
2022/10/09 01:55:45;;;;;;;29.30;5.85;;;;;;;9.78;77.29;99839.81;4986615;28;20033;-90
2022/10/09 01:58:43;;;;;;;17.25;6.28;;;;;;;9.70;77.65;99837.72;4998413;28;20045;-88
2022/10/09 02:01:25;;;;;;;19.65;6.03;;;;;;;9.30;77.69;99782.59;4998240;28;20074;-89
2022/10/09 02:03:53;;;;;;;22.00;5.75;;;;;;;9.47;77.73;99814.84;4984399;28;20042;-89
2022/10/09 02:06:46;;;;;;;15.45;5.78;;;;;;;9.45;77.75;99806.16;5013610;28;20037;-88
2022/10/09 02:09:15;;;;;;;23.77;5.70;;;;;;;9.28;77.66;99782.09;4970397;28;20061;-89
2022/10/09 02:11:48;;;;;;;20.33;5.95;;;;;;;9.18;77.74;99756.56;4964515;28;20065;-89
2022/10/09 02:14:14;;;;;;;17.75;6.25;;;;;;;9.23;77.98;99761.13;4964871;28;20046;-89
2022/10/09 02:16:45;;;;;;;19.83;6.72;;;;;;;9.17;77.89;99752.22;4980654;28;20385;-90
2022/10/09 02:19:52;;;;;;;23.75;6.47;;;;;;;9.17;78.27;99754.94;4984148;28;20046;-91
2022/10/09 02:22:30;;;;;;;22.08;5.88;;;;;;;9.29;77.86;99772.78;4945678;28;20042;-89
2022/10/09 02:24:59;;;;;;;17.23;6.20;;;;;;;8.88;77.79;99697.78;4971153;28;20584;-90
2022/10/09 02:27:32;;;;;;;13.05;5.80;;;;;;;9.25;77.69;99761.66;4955372;28;20125;-92
2022/10/09 02:30:25;;;;;;;19.08;6.13;;;;;;;9.68;77.59;99813.47;4960461;28;20129;-89
2022/10/09 02:32:59;;;;;;;17.88;6.15;;;;;;;9.44;77.11;99769.88;4964438;28;20065;-89
2022/10/09 02:35:50;;;;;;;21.15;6.00;;;;;;;9.67;77.36;99806.38;4964696;28;20030;-90
2022/10/09 02:38:16;;;;;;;17.60;6.15;;;;;;;9.27;77.42;99750.44;4962676;28;20046;-89
2022/10/09 02:40:43;;;;;;;13.73;6.55;;;;;;;9.49;77.36;99783.41;4964447;28;20129;-92
2022/10/09 02:43:21;;;;;;;19.70;7.35;;;;;;;9.28;77.30;99752.88;4980115;28;20108;-89
2022/10/09 02:45:47;;;;;;;23.08;6.20;;;;;;;9.45;77.28;99774.22;4976796;28;20077;-89
2022/10/09 02:48:14;;;;;;;16.83;6.35;;;;;;;9.29;77.40;99756.41;4993810;28;20038;-88
2022/10/09 02:50:40;;;;;;;;;;;;;;;9.58;77.80;99803.50;4996149;28;20491;-90
2022/10/09 02:53:06;;;;;;;22.83;6.17;;;;;;;8.96;77.60;99698.22;4978694;28;19928;-90
2022/10/09 02:55:36;;;;;;;21.50;6.13;;;;;;;9.02;77.78;99714.22;4978168;28;20055;-91
2022/10/09 02:58:02;;;;;;;14.00;6.15;;;;;;;9.51;77.71;99781.22;4959322;28;20034;-89
2022/10/09 03:00:29;;;;;;;13.73;6.13;;;;;;;9.48;77.33;99772.81;4995276;28;20133;-89
2022/10/09 03:02:56;;;;;;;16.75;6.38;;;;;;;9.11;77.52;99715.19;4962988;28;20045;-91
2022/10/09 03:05:22;;;;;;;21.15;7.22;;;;;;;9.37;77.41;99753.03;4975385;28;20523;-88
2022/10/09 03:07:51;;;;;;;19.65;6.07;;;;;;;9.18;77.39;99718.38;4957549;28;20042;-89
2022/10/09 03:10:21;;;;;;;17.83;5.90;;;;;;;9.37;77.42;99747.56;4994994;28;20054;-89
2022/10/09 03:12:47;;;;;;;15.77;6.22;;;;;;;9.12;77.25;99688.72;4978276;28;20042;-89
2022/10/09 03:15:14;;;;;;;19.30;6.50;;;;;;;9.06;77.37;99696.16;4995118;28;20037;-91
2022/10/09 03:17:40;;;;;;;21.53;6.60;;;;;;;9.68;77.12;99767.06;4962613;28;20034;-91
2022/10/09 03:20:07;;;;;;;;;;;;;;;9.66;77.31;99769.25;4964578;28;20050;-89
2022/10/09 03:22:33;;;;;;;21.88;6.13;;;;;;;9.53;77.23;99739.97;4972256;28;19922;-91
2022/10/09 03:24:59;;;;;;;24.83;7.00;;;;;;;9.21;77.33;99702.53;4995588;28;20093;-90
2022/10/09 03:27:25;;;;;;;24.75;7.68;;;;;;;9.43;77.32;99735.47;4980274;28;20046;-92
2022/10/09 03:29:51;;;;;;;24.63;6.50;;;;;;;9.33;77.30;99719.25;4979752;28;20034;-89
2022/10/09 03:32:19;;;;;;;22.10;6.97;;;;;;;9.44;77.20;99745.31;4971928;28;20050;-89
2022/10/09 03:34:45;;;;;;;22.52;8.27;;;;;;;9.11;77.40;99693.38;4978738;28;20038;-88
2022/10/09 03:37:11;;;;;;;21.27;7.43;;;;;;;9.56;77.46;99758.50;4977930;28;20531;-90
2022/10/09 03:39:37;;;;;;;27.40;7.95;;;;;;;9.24;77.44;99705.47;4977318;28;20550;-91
2022/10/09 03:42:04;;;;;;;22.20;7.60;;;;;;;9.41;77.41;99729.53;4974616;28;20074;-93
2022/10/09 03:44:30;;;;;;;20.77;7.00;;;;;;;9.45;77.25;99733.28;4958976;28;20539;-90
2022/10/09 03:46:56;;;;;;;19.70;7.55;;;;;;;9.22;77.34;99694.03;4959158;28;20066;-89
2022/10/09 03:49:22;;;;;;;24.65;6.82;;;;;;;9.48;77.41;99732.69;4974510;28;20066;-89
2022/10/09 03:51:48;;;;;;;19.17;7.18;;;;;;;9.48;77.36;99727.22;4977586;28;20046;-89
2022/10/09 03:54:14;;;;;;;19.60;6.15;;;;;;;9.47;77.28;99736.53;4978031;28;20662;-89
2022/10/09 03:56:41;;;;;;;15.55;6.50;;;;;;;9.21;77.58;99689.69;4962113;28;20046;-90
2022/10/09 03:59:08;;;;;;;22.05;5.93;;;;;;;9.31;77.52;99694.19;4995522;28;20031;-91
2022/10/09 04:01:35;;;;;;;20.55;6.20;;;;;;;9.58;77.38;99732.53;4959267;28;20047;-91
2022/10/09 04:04:01;;;;;;;20.58;6.32;;;;;;;9.60;77.47;99730.34;4963123;28;20041;-89
2022/10/09 04:06:27;;;;;;;21.90;6.32;;;;;;;9.31;77.42;99683.28;4979011;28;20096;-90
2022/10/09 04:08:53;;;;;;;17.77;5.80;;;;;;;9.17;77.36;99659.47;4959002;28;20054;-92
2022/10/09 04:11:19;;;;;;;18.00;5.95;;;;;;;9.63;77.40;99728.91;4967971;28;20419;-92
2022/10/09 04:13:48;;;;;;;13.75;6.10;;;;;;;8.97;77.43;99615.31;4978404;28;20125;-92
2022/10/09 04:16:15;;;;;;;16.50;5.88;;;;;;;9.63;77.38;99723.44;4972784;28;20045;-92
2022/10/09 04:18:43;;;;;;;18.63;6.10;;;;;;;9.12;77.22;99629.53;4942281;28;20043;-93
2022/10/09 04:21:11;;;;;;;21.08;6.75;;;;;;;9.08;77.10;99628.50;4954236;28;20149;-91
2022/10/09 04:23:38;;;;;;;19.42;5.70;;;;;;;9.30;77.20;99660.63;4978564;28;20034;-91
2022/10/09 04:26:04;;;;;;;22.40;6.57;;;;;;;9.43;77.07;99680.91;4978364;28;20042;-91
2022/10/09 04:28:31;;;;;;;19.27;7.07;;;;;;;9.26;76.46;99628.78;4963652;28;20070;-91
2022/10/09 04:30:57;;;;;;;23.67;7.80;;;;;;;9.34;76.74;99653.50;4956586;28;20485;-92
2022/10/09 04:33:25;;;;;;;23.95;6.85;;;;;;;9.40;76.64;99657.78;4988993;28;20039;-90
2022/10/09 04:35:56;;;;;;;19.83;6.82;;;;;;;9.55;76.69;99678.53;4987027;28;20136;-92
2022/10/09 04:38:34;;;;;;;18.33;6.35;;;;;;;9.65;76.64;99683.84;4961983;28;20138;-91
2022/10/09 04:41:04;;;;;;;13.77;6.40;;;;;;;9.50;76.46;99662.22;4967305;28;20046;-91
2022/10/09 04:43:34;;;;;;;25.58;8.32;;;;;;;9.29;76.38;99628.19;4965011;28;20045;-93
2022/10/09 04:46:05;;;;;;;25.58;8.02;;;;;;;9.36;76.23;99634.09;4980538;28;20033;-94
2022/10/09 04:48:40;;;;;;;19.00;7.80;;;;;;;9.56;76.14;99663.78;4965290;28;20092;-91
2022/10/09 04:51:20;;;;;;;23.42;8.75;;;;;;;9.25;76.06;99619.81;4983203;28;20043;-94
2022/10/09 04:53:56;;;;;;;23.98;8.70;;;;;;;9.88;75.99;99722.25;4966223;28;20096;-93
2022/10/09 04:56:49;;;;;;;33.55;10.77;;;;;;;9.30;76.16;99622.44;4947166;29;20051;-91
2022/10/09 04:59:15;;;;;;;22.48;8.18;;;;;;;9.35;76.14;99627.03;4938716;29;20070;-91
2022/10/09 05:01:44;;;;;;;25.75;7.72;;;;;;;9.27;75.92;99609.41;4933646;29;20138;-93
2022/10/09 05:04:10;;;;;;;25.23;7.97;;;;;;;9.55;75.76;99653.16;4929771;29;20098;-90
2022/10/09 05:06:36;;;;;;;27.20;8.40;;;;;;;10.05;75.94;99706.09;4927301;29;20532;-89
2022/10/09 05:09:02;;;;;;;29.63;10.82;;;;;;;9.52;75.61;99623.75;4910491;29;20183;-89
2022/10/09 05:11:29;;;;;;;31.37;10.50;;;;;;;9.61;75.31;99617.31;4932121;28;20056;-90
2022/10/09 05:13:56;;;;;;;31.80;11.03;;;;;;;9.68;74.91;99622.38;4918086;29;20084;-91
2022/10/09 05:16:25;;;;;;;24.52;9.15;;;;;;;9.49;75.01;99584.22;4898511;29;20047;-92
2022/10/09 05:18:55;;;;;;;23.38;8.52;;;;;;;10.09;74.90;99665.34;4876222;29;20128;-90
2022/10/09 05:21:28;;;;;;;19.08;7.35;;;;;;;9.97;75.02;99638.53;4939621;28;20047;-95
2022/10/09 05:30:42;;;;;;;21.85;6.50;;;;;;;10.18;74.27;99638.13;4924139;29;21093;-91
2022/10/09 05:42:42;;;;;;;14.38;5.68;;;;;;;10.92;72.65;99688.06;5128035;23;20066;-92
2022/10/09 05:49:06;;;;;;;17.45;6.22;;;;;;;11.09;72.01;99683.88;4941038;28;20037;-93
2022/10/09 05:52:13;;;;;;;;;;;;;;;;;;;;;
2022/10/09 05:55:40;;;;;;;17.40;5.35;;;;;;;11.03;71.21;99639.44;4959957;28;20491;-94
2022/10/09 05:58:07;;;;;;;16.23;5.68;;;;;;;10.99;70.46;99644.72;4940075;28;20133;-93
2022/10/09 06:00:52;;;;;;;;;;;;;;;;;;;;;
2022/10/09 06:03:37;;;;;;;15.32;5.55;;;;;;;11.41;70.34;99674.69;4935998;28;20058;-95
2022/10/09 06:06:24;;;;;;;16.85;5.93;;;;;;;10.94;69.80;99592.84;4948863;28;20044;-93
2022/10/09 06:08:51;;;;;;;16.58;5.90;;;;;;;11.07;69.85;99606.78;4939496;28;20039;-94
2022/10/09 06:11:23;;;;;;;15.23;5.90;;;;;;;11.01;69.66;99576.00;4927827;28;20051;-92
2022/10/09 06:13:50;;;;;;;21.83;5.43;;;;;;;11.00;69.53;99564.25;4941978;28;20062;-95
2022/10/09 06:16:46;;;;;;;14.35;5.82;;;;;;;11.88;69.67;99670.53;4930847;28;20047;-92
2022/10/09 06:19:22;;;;;;;13.23;5.30;;;;;;;11.43;69.57;99585.66;4911995;28;20039;-93
2022/10/09 06:22:02;;;;;;;;;;;;;;;;;;;;;
2022/10/09 06:25:07;;;;;;;13.68;5.63;;;;;;;11.79;68.19;99642.25;4943650;28;20298;-90
2022/10/09 06:27:33;;;;;;;23.65;6.10;;;;;;;11.87;68.11;99636.03;4989236;28;20538;-91
2022/10/09 06:30:12;;;;;;;12.15;5.50;;;;;;;11.98;67.67;99653.81;4960755;28;20041;-91
2022/10/09 06:32:41;;;;;;;17.40;5.88;;;;;;;11.79;66.85;99614.03;4959687;28;20057;-89
2022/10/09 06:35:08;;;;;;;;;;;;;;;12.22;67.25;99669.13;4980721;28;20124;-94
2022/10/09 06:37:43;;;;;;;12.03;6.20;;;;;;;12.07;66.95;99639.38;4982595;28;19968;-93
2022/10/09 06:40:10;;;;;;;22.60;5.57;;;;;;;11.98;67.06;99609.19;4965622;28;20035;-94
2022/10/09 06:42:40;;;;;;;12.55;5.63;;;;;;;12.40;66.81;99662.59;4975394;28;20065;-92
2022/10/09 06:45:55;;;;;;;17.63;5.65;;;;;;;12.06;66.11;99585.72;4985426;28;20042;-92
2022/10/09 06:48:49;;;;;;;18.35;5.47;;;;;;;11.94;66.48;99551.47;4972335;28;20573;-92
2022/10/09 06:51:18;;;;;;;17.63;5.50;;;;;;;12.52;65.50;99631.03;4902788;29;20445;-92
2022/10/09 06:53:48;;;;;;;20.67;6.25;;;;;;;12.56;65.09;99619.09;4936526;29;20039;-92
2022/10/09 06:56:16;;;;;;;24.80;6.70;;;;;;;12.26;63.86;99576.09;4924067;29;20103;-89
2022/10/09 06:58:42;;;;;;;20.20;6.50;;;;;;;12.27;63.83;99570.28;4923478;29;20032;-92
2022/10/09 07:05:32;;;;;;;;;;;;;;;;;;;;;
2022/10/09 07:08:51;;;;;;;15.27;6.63;;;;;;;12.57;63.55;99587.00;4959288;28;20073;-96
2022/10/09 07:15:08;;;;;;;18.73;6.82;;;;;;;12.98;63.05;99643.38;2376589;22;20329;-91
2022/10/09 07:17:37;;;;;;;19.48;6.82;;;;;;;12.60;62.82;99584.41;4998362;28;20130;-90
2022/10/09 07:20:55;;;;;;;20.40;7.23;;;;;;;13.04;63.09;99639.34;4962187;28;20039;-92
2022/10/09 07:23:22;;;;;;;24.48;8.20;;;;;;;12.48;62.89;99547.75;4978336;28;20874;-94
2022/10/09 07:32:52;;;;;;;16.20;6.93;;;;;;;12.60;61.83;99520.53;5322032;22;20066;-93
2022/10/09 07:39:49;;;;;;;18.02;6.50;;;;;;;13.15;62.01;99566.53;4994646;28;20062;-93
2022/10/09 07:46:33;;;;;;;19.42;6.05;;;;;;;13.08;61.27;99536.84;5103167;23;20426;-94
2022/10/09 07:49:23;;;;;;;16.08;6.32;;;;;;;13.11;61.30;99535.38;4994988;28;20053;-90
2022/10/09 07:51:56;;;;;;;19.48;5.57;;;;;;;13.37;60.87;99560.88;4989137;28;20042;-91
2022/10/09 07:54:22;;;;;;;21.40;6.05;;;;;;;13.19;61.17;99522.78;4996848;23;20062;-92
2022/10/09 07:57:12;;;;;;;34.20;10.88;;;;;;;13.74;60.11;99591.53;4970296;28;20098;-94
2022/10/09 07:59:40;;;;;;;20.17;6.72;;;;;;;13.67;59.86;99580.22;4975666;28;20043;-92
2022/10/09 08:02:08;;;;;;;12.02;5.97;;;;;;;13.40;59.70;99532.78;4943130;29;20045;-89
2022/10/09 08:04:36;;;;;;;12.68;6.25;;;;;;;13.75;60.21;99575.84;4958935;28;20050;-92
2022/10/09 08:07:23;;;;;;;14.38;5.38;;;;;;;14.00;59.47;99609.84;4959853;28;20050;-93
2022/10/09 08:09:51;;;;;;;16.73;5.65;;;;;;;13.49;59.54;99505.28;4932363;29;20054;-91
2022/10/09 08:12:17;;;;;;;16.38;5.50;;;;;;;13.57;59.05;99526.44;4944659;29;20055;-91
2022/10/09 08:15:41;;;;;;;15.93;5.60;;;;;;;14.20;59.25;99609.13;4946661;29;20026;-93
2022/10/09 08:45:57;;;;;;;;;;;;;;;14.99;57.17;99588.31;5003876;28;20034;-91
2022/10/09 08:48:47;;;;;;;;;;;;;;;;;;;;;
2022/10/09 08:51:55;;;;;;;24.77;6.20;;;;;;;15.07;53.63;99585.84;4993804;28;20045;-93
2022/10/09 08:54:33;;;;;;;27.52;8.77;;;;;;;14.92;53.81;99546.75;4985326;28;20129;-93
2022/10/09 09:01:35;;;;;;;19.40;7.43;;;;;;;15.02;53.37;99543.59;4987938;28;20048;-91
2022/10/09 09:04:25;;;;;;;23.67;8.95;;;;;;;15.26;53.05;99573.22;4955587;28;20051;-89
2022/10/09 09:07:33;;;;;;;28.83;9.50;;;;;;;15.31;52.75;99583.19;4955246;28;20054;-93
2022/10/09 09:10:11;;;;;;;33.15;11.45;;;;;;;15.42;53.83;99581.63;4965173;28;20046;-92
2022/10/09 09:13:05;;;;;;;17.27;8.07;;;;;;;15.00;52.83;99498.28;4970554;28;20046;-93
2022/10/09 09:15:59;;;;;;;19.40;7.13;;;;;;;15.04;52.19;99497.25;4978862;28;20038;-91
2022/10/09 09:18:54;;;;;;;18.00;5.22;;;;;;;15.68;52.88;99588.88;4980768;28;20447;-91
2022/10/09 09:22:12;;;;;;;16.05;6.50;;;;;;;15.56;51.90;99545.50;4963725;28;20045;-90
2022/10/09 09:25:34;;;;;;;;;;;;;;;;;;;;;
2022/10/09 09:28:29;;;;;;;16.52;5.07;;;;;;;15.95;50.99;99579.97;4971152;28;20066;-93
2022/10/09 09:31:29;;;;;;;14.43;5.07;;;;;;;15.81;50.95;99537.34;4925013;29;20497;-93
2022/10/09 09:34:14;;;;;;;15.02;5.18;;;;;;;15.87;50.84;99533.22;4917146;29;20047;-94
2022/10/09 09:37:05;;;;;;;20.65;5.85;;;;;;;15.88;51.51;99513.56;4944007;29;20066;-92
2022/10/09 09:40:22;;;;;;;13.98;5.55;;;;;;;16.31;50.02;99559.06;4986399;23;20054;-94
2022/10/09 09:47:05;;;;;;;27.27;8.87;;;;;;;16.20;50.21;99533.91;4912727;29;20517;-93
2022/10/09 09:50:21;;;;;;;15.95;6.10;;;;;;;16.45;50.26;99558.72;4895084;29;20048;-93
2022/10/09 09:57:03;;;;;;;16.70;6.40;;;;;;;16.05;48.78;99468.41;4886309;29;20060;-91
2022/10/09 09:59:49;;;;;;;16.35;6.53;;;;;;;16.39;47.69;99524.22;4878997;29;20044;-92
2022/10/09 10:02:30;;;;;;;21.17;6.13;;;;;;;16.31;47.69;99527.94;4872985;29;20079;-94
2022/10/09 10:05:41;;;;;;;;;;;;;;;16.44;47.48;99538.59;4884923;29;20041;-93
2022/10/09 10:08:26;;;;;;;17.55;6.80;;;;;;;16.48;47.21;99541.47;4884032;29;19928;-91
2022/10/09 10:11:22;;;;;;;16.42;6.57;;;;;;;16.07;46.80;99463.34;4870295;29;20048;-92
2022/10/09 10:14:07;;;;;;;19.90;7.25;;;;;;;16.16;45.55;99449.47;4886530;29;20072;-92
2022/10/09 10:16:59;;;;;;;19.30;6.75;;;;;;;16.79;45.60;99531.81;4875892;29;20148;-92
2022/10/09 10:19:55;;;;;;;19.85;7.63;;;;;;;16.25;43.52;99432.75;4862341;29;21990;-93
2022/10/09 10:22:30;;;;;;;10.35;4.38;;;;;;;16.65;42.35;99488.78;4876667;29;20507;-90
2022/10/09 10:28:18;;;;;;;16.60;4.93;;;;;;;17.04;46.42;99472.53;4903117;29;20032;-93
2022/10/09 10:30:46;;;;;;;15.10;6.78;;;;;;;17.46;46.53;99501.69;4910059;29;20047;-91
2022/10/09 10:33:31;;;;;;;17.83;7.95;;;;;;;17.13;46.10;99434.53;4934960;29;20057;-91
2022/10/09 10:35:58;;;;;;;19.17;7.90;;;;;;;17.13;45.47;99423.47;4945273;28;20043;-91
2022/10/09 10:38:41;;;;;;;23.65;10.07;;;;;;;17.51;45.61;99477.34;4951856;28;20049;-89
2022/10/09 10:41:18;;;;;;;20.85;8.98;;;;;;;17.22;46.00;99416.97;4968900;28;20055;-88
2022/10/09 10:43:50;;;;;;;26.27;7.00;;;;;;;17.47;45.34;99446.06;4981029;28;20045;-91
2022/10/09 10:46:24;;;;;;;21.55;5.60;;;;;;;17.72;45.41;99457.75;4944306;28;20038;-93
2022/10/09 10:48:58;;;;;;;16.90;6.53;;;;;;;18.00;43.38;99499.16;4950893;28;20170;-92
2022/10/09 10:51:41;;;;;;;18.45;5.45;;;;;;;17.44;41.32;99401.75;4999292;28;20038;-92
2022/10/09 10:54:33;;;;;;;12.07;5.22;;;;;;;17.99;41.12;99491.22;4953073;28;20038;-94
2022/10/09 11:04:45;;;;;;;12.38;4.68;;;;;;;18.06;38.12;99466.50;5508335;23;20061;-90
2022/10/09 11:07:23;;;;;;;10.50;4.72;;;;;;;18.24;37.66;99473.22;5017168;28;20054;-89
2022/10/09 11:10:23;;;;;;;10.57;4.53;;;;;;;17.92;37.67;99427.44;4989685;28;20102;-90
2022/10/09 11:13:04;;;;;;;11.63;4.45;;;;;;;17.71;38.48;99388.97;4985981;28;20034;-90
2022/10/09 11:15:48;;;;;;;7.60;4.03;;;;;;;18.11;37.32;99468.97;5054348;23;20041;-91
2022/10/09 11:18:43;;;;;;;10.52;4.72;;;;;;;18.06;38.41;99466.50;5006068;28;20032;-89
2022/10/09 11:21:22;;;;;;;14.52;4.28;;;;;;;18.01;38.33;99473.13;5020205;28;20042;-90
2022/10/09 11:24:26;;;;;;;16.55;5.07;;;;;;;17.98;38.75;99473.81;5021149;28;20033;-91
2022/10/09 11:27:23;;;;;;;12.57;4.10;;;;;;;17.86;38.51;99462.06;4997652;28;20424;-92
2022/10/09 11:30:09;;;;;;;15.70;4.13;;;;;;;17.26;39.01;99379.22;5009788;28;20049;-92
2022/10/09 11:33:13;;;;;;;15.32;4.85;;;;;;;17.92;38.71;99466.16;5014185;28;20036;-92
2022/10/09 11:36:16;;;;;;;11.57;5.57;;;;;;;17.49;39.09;99385.72;5011494;28;20053;-90
2022/10/09 11:39:47;;;;;;;10.57;4.03;;;;;;;17.44;38.92;99377.69;4963622;28;20054;-92
2022/10/09 12:45:35;;;;;;;;;;;;;;;;;;;;;
2022/10/09 12:49:25;;;;;;;21.45;7.63;;;;;;;16.68;40.94;99437.56;4947640;29;20047;-91
2022/10/09 13:52:00;;;;;;;25.60;6.97;;;;;;;16.38;46.90;99511.59;5312881;23;20049;-92
2022/10/09 13:55:18;;;;;;;28.77;7.28;;;;;;;15.79;48.91;99443.94;4951664;28;20050;-92
2022/10/09 13:59:01;;;;;;;19.58;7.30;;;;;;;15.91;52.68;99514.81;4975465;28;20046;-93
2022/10/09 14:01:33;;;;;;;22.70;6.65;;;;;;;15.20;53.55;99427.81;4954802;28;20038;-93
2022/10/09 14:05:16;;;;;;;24.10;7.85;;;;;;;14.94;56.07;99444.59;4979115;28;20081;-93
2022/10/09 14:12:34;;;;;;;22.30;7.25;;;;;;;14.97;57.53;99488.75;4837940;29;20109;-91
2022/10/09 14:15:40;;;;;;;;;;;;;;;;;;;;;
2022/10/09 14:19:07;;;;;;;24.63;6.50;;;;;;;15.14;58.96;99537.34;4903724;29;20035;-92
2022/10/09 14:22:25;;;;;;;;;;;;;;;;;;;;;
2022/10/09 14:24:52;;;;;;;24.17;7.57;;;;;;;14.62;61.24;99550.72;4889783;29;20067;-92
2022/10/09 14:27:21;;;;;;;13.67;7.23;;;;;;;14.18;61.35;99475.91;4872332;29;20615;-91
2022/10/09 14:29:47;;;;;;;22.50;8.20;;;;;;;14.33;61.44;99498.09;4854438;29;20049;-91
2022/10/09 14:32:14;;;;;;;30.27;8.98;;;;;;;14.52;61.51;99516.16;4873030;29;20037;-93
2022/10/09 14:34:40;;;;;;;29.63;8.00;;;;;;;14.36;61.46;99506.84;4888041;29;20057;-84
2022/10/09 14:37:06;;;;;;;16.70;7.27;;;;;;;14.52;62.06;99551.91;4895378;29;20168;-86
2022/10/09 14:39:32;;;;;;;27.13;7.63;;;;;;;14.39;62.27;99533.69;4903297;29;20045;-85
2022/10/09 14:41:58;;;;;;;18.87;7.10;;;;;;;14.42;62.20;99538.50;4896690;29;20101;-86
2022/10/09 14:44:24;;;;;;;22.23;7.90;;;;;;;14.47;62.80;99565.81;4892760;29;20124;-90
2022/10/09 14:46:51;;;;;;;26.90;12.00;;;;;;;14.30;63.34;99537.28;4894910;29;20033;-91
2022/10/09 14:49:20;;;;;;;18.30;8.68;;;;;;;14.26;63.10;99533.56;4989207;28;20058;-89
2022/10/09 14:51:46;;;;;;;27.52;8.60;;;;;;;14.46;63.30;99564.19;4982881;28;20019;-83
2022/10/09 14:54:13;;;;;;;19.77;8.07;;;;;;;14.34;63.25;99543.75;4992086;28;20090;-88
2022/10/09 14:56:39;;;;;;;17.35;7.20;;;;;;;14.39;63.58;99550.97;5021425;28;20048;-88
2022/10/09 14:59:06;;;;;;;16.35;7.88;;;;;;;14.39;63.40;99550.97;5035450;28;20069;-88
2022/10/09 15:01:33;;;;;;;22.60;8.57;;;;;;;14.40;63.59;99569.09;5017171;28;20045;-85
2022/10/09 15:04:03;;;;;;;20.48;7.72;;;;;;;14.45;63.84;99577.16;5006477;28;20038;-92
2022/10/09 15:06:32;;;;;;;20.83;7.47;;;;;;;14.37;63.94;99575.28;4982207;28;20047;-87
2022/10/09 15:09:01;;;;;;;20.75;7.95;;;;;;;14.22;64.10;99559.31;4956117;29;20043;-87
2022/10/09 15:11:28;;;;;;;19.05;7.35;;;;;;;14.28;64.69;99586.31;4965952;28;20516;-85
2022/10/09 15:13:58;;;;;;;25.45;7.55;;;;;;;14.09;65.41;99597.69;4962691;28;20530;-86
2022/10/09 15:16:26;;;;;;;16.60;6.15;;;;;;;14.12;66.32;99609.19;4980579;28;20053;-87
2022/10/09 15:18:55;;;;;;;15.48;6.40;;;;;;;14.04;66.84;99610.84;4961153;28;20035;-84
2022/10/09 15:21:35;;;;;;;18.08;6.28;;;;;;;13.63;67.61;99571.81;4944846;29;20058;-87
2022/10/09 15:24:04;;;;;;;13.63;6.15;;;;;;;13.84;68.28;99602.16;4965626;28;20062;-86
2022/10/09 15:26:32;;;;;;;13.25;6.38;;;;;;;13.98;68.62;99615.69;4962523;29;20078;-88
2022/10/09 15:29:00;;;;;;;16.02;6.35;;;;;;;13.94;69.17;99619.41;4944406;29;20070;-88
2022/10/09 15:31:28;;;;;;;16.45;6.97;;;;;;;13.84;69.49;99615.91;4941937;28;20397;-86
2022/10/09 15:34:00;;;;;;;15.68;6.65;;;;;;;13.63;69.35;99582.00;4963306;28;20043;-88
2022/10/09 15:36:27;;;;;;;16.33;7.07;;;;;;;13.43;70.27;99585.44;4924240;29;20073;-92
2022/10/09 15:38:54;;;;;;;16.13;6.28;;;;;;;13.70;70.54;99637.25;4976817;28;20058;-92
2022/10/09 15:41:22;;;;;;;17.10;7.78;;;;;;;13.70;70.43;99631.75;4975340;28;20519;-90
2022/10/09 15:47:34;;;;;;;;;;;;;;;13.71;71.20;99636.13;5010105;28;20133;-91
2022/10/09 15:50:04;;;;;;;17.35;6.07;;;;;;;13.51;71.57;99610.16;4984413;28;20005;-92
2022/10/09 15:52:40;;;;;;;13.32;5.40;;;;;;;13.46;71.77;99609.50;4982768;28;20567;-93
2022/10/09 15:55:07;;;;;;;10.10;5.43;;;;;;;13.46;71.76;99607.56;5016445;28;20042;-92
2022/10/09 15:58:02;;;;;;;11.57;5.20;;;;;;;13.57;72.19;99632.75;4966951;23;20053;-91
2022/10/09 16:00:29;;;;;;;13.27;5.68;;;;;;;13.37;72.08;99590.28;4977208;28;20054;-92
2022/10/09 16:02:58;;;;;;;9.20;5.25;;;;;;;13.23;72.62;99581.38;4977768;28;20495;-93
2022/10/09 16:05:24;;;;;;;14.48;6.25;;;;;;;13.25;72.72;99588.22;4980066;28;20074;-94
2022/10/09 16:07:52;;;;;;;15.20;6.25;;;;;;;13.48;73.17;99608.06;4967149;28;20038;-89
2022/10/09 16:11:17;;;;;;;15.70;6.90;;;;;;;13.69;73.22;99643.09;4978755;28;20089;-90
2022/10/09 16:14:09;;;;;;;15.38;7.07;;;;;;;13.63;73.55;99651.47;4959955;28;20061;-93
2022/10/09 16:16:41;;;;;;;18.40;7.47;;;;;;;13.22;74.27;99599.00;4944506;28;20030;-89
2022/10/09 16:19:08;;;;;;;16.75;6.38;;;;;;;12.98;74.53;99578.34;4943656;28;20121;-90
2022/10/09 16:21:35;;;;;;;12.40;5.10;;;;;;;13.46;73.91;99657.00;4960538;28;20054;-88
2022/10/09 16:24:02;;;;;;;14.40;6.18;;;;;;;12.85;74.70;99571.06;4983471;28;20030;-88